sensor_id;sensor_type;location;lat;lon;timestamp;P1;durP1;ratioP1;P2;durP2;ratioP2
73585;SDS011;61865;50.232;18.614;2023-04-29T00:00:06;38.63;;;17.83;;
73585;SDS011;61865;50.232;18.614;2023-04-29T00:02:29;33.50;;;17.52;;
73585;SDS011;61865;50.232;18.614;2023-04-29T00:04:51;35.13;;;18.63;;
73585;SDS011;61865;50.232;18.614;2023-04-29T00:07:14;38.53;;;19.30;;
73585;SDS011;61865;50.232;18.614;2023-04-29T00:09:35;39.42;;;20.33;;
73585;SDS011;61865;50.232;18.614;2023-04-29T00:11:59;39.60;;;21.70;;
73585;SDS011;61865;50.232;18.614;2023-04-29T00:14:21;42.70;;;20.10;;
73585;SDS011;61865;50.232;18.614;2023-04-29T00:16:43;42.70;;;20.67;;
73585;SDS011;61865;50.232;18.614;2023-04-29T00:19:05;38.05;;;18.95;;
73585;SDS011;61865;50.232;18.614;2023-04-29T00:21:27;41.25;;;19.38;;
73585;SDS011;61865;50.232;18.614;2023-04-29T00:23:50;34.60;;;18.95;;
73585;SDS011;61865;50.232;18.614;2023-04-29T00:26:12;37.10;;;17.73;;
73585;SDS011;61865;50.232;18.614;2023-04-29T00:28:35;34.15;;;16.75;;
73585;SDS011;61865;50.232;18.614;2023-04-29T00:30:57;36.80;;;18.42;;
73585;SDS011;61865;50.232;18.614;2023-04-29T00:33:19;33.00;;;16.02;;
73585;SDS011;61865;50.232;18.614;2023-04-29T00:35:41;29.55;;;15.30;;
73585;SDS011;61865;50.232;18.614;2023-04-29T00:38:03;38.13;;;15.95;;
73585;SDS011;61865;50.232;18.614;2023-04-29T00:40:26;34.70;;;14.50;;
73585;SDS011;61865;50.232;18.614;2023-04-29T00:42:48;32.22;;;16.33;;
73585;SDS011;61865;50.232;18.614;2023-04-29T00:45:11;34.65;;;15.55;;
73585;SDS011;61865;50.232;18.614;2023-04-29T00:47:33;31.17;;;16.67;;
73585;SDS011;61865;50.232;18.614;2023-04-29T00:49:55;34.38;;;17.50;;
73585;SDS011;61865;50.232;18.614;2023-04-29T00:52:17;36.50;;;17.98;;
73585;SDS011;61865;50.232;18.614;2023-04-29T00:54:39;41.53;;;17.67;;
73585;SDS011;61865;50.232;18.614;2023-04-29T00:57:02;31.80;;;16.00;;
73585;SDS011;61865;50.232;18.614;2023-04-29T00:59:26;38.67;;;16.42;;
73585;SDS011;61865;50.232;18.614;2023-04-29T01:01:52;38.13;;;16.40;;
73585;SDS011;61865;50.232;18.614;2023-04-29T01:04:14;36.25;;;17.55;;
73585;SDS011;61865;50.232;18.614;2023-04-29T01:06:40;32.67;;;17.88;;
73585;SDS011;61865;50.232;18.614;2023-04-29T01:09:18;41.28;;;20.13;;
73585;SDS011;61865;50.232;18.614;2023-04-29T01:11:52;40.20;;;17.15;;
73585;SDS011;61865;50.232;18.614;2023-04-29T01:14:22;34.42;;;16.63;;
73585;SDS011;61865;50.232;18.614;2023-04-29T01:16:47;35.38;;;18.48;;
73585;SDS011;61865;50.232;18.614;2023-04-29T01:19:19;29.60;;;15.70;;
73585;SDS011;61865;50.232;18.614;2023-04-29T01:22:00;25.27;;;13.65;;
73585;SDS011;61865;50.232;18.614;2023-04-29T01:24:23;29.30;;;12.85;;
73585;SDS011;61865;50.232;18.614;2023-04-29T01:26:48;29.85;;;12.60;;
73585;SDS011;61865;50.232;18.614;2023-04-29T01:29:19;25.45;;;11.60;;
73585;SDS011;61865;50.232;18.614;2023-04-29T01:34:13;23.30;;;11.88;;
73585;SDS011;61865;50.232;18.614;2023-04-29T01:36:45;22.83;;;11.02;;
73585;SDS011;61865;50.232;18.614;2023-04-29T01:39:13;27.88;;;10.20;;
73585;SDS011;61865;50.232;18.614;2023-04-29T01:41:43;20.58;;;9.50;;
73585;SDS011;61865;50.232;18.614;2023-04-29T01:44:07;22.00;;;10.60;;
73585;SDS011;61865;50.232;18.614;2023-04-29T01:46:35;17.85;;;10.40;;
73585;SDS011;61865;50.232;18.614;2023-04-29T01:48:58;20.13;;;10.52;;
73585;SDS011;61865;50.232;18.614;2023-04-29T01:51:22;20.85;;;9.35;;
73585;SDS011;61865;50.232;18.614;2023-04-29T01:53:44;19.95;;;10.13;;
73585;SDS011;61865;50.232;18.614;2023-04-29T01:56:06;21.45;;;10.30;;
73585;SDS011;61865;50.232;18.614;2023-04-29T01:58:30;14.98;;;8.63;;
73585;SDS011;61865;50.232;18.614;2023-04-29T02:00:52;14.10;;;8.40;;
73585;SDS011;61865;50.232;18.614;2023-04-29T02:03:13;20.75;;;9.00;;
73585;SDS011;61865;50.232;18.614;2023-04-29T02:05:36;17.85;;;9.40;;
73585;SDS011;61865;50.232;18.614;2023-04-29T02:07:58;19.48;;;8.63;;
73585;SDS011;61865;50.232;18.614;2023-04-29T02:10:20;15.95;;;8.93;;
73585;SDS011;61865;50.232;18.614;2023-04-29T02:12:42;18.85;;;8.90;;
73585;SDS011;61865;50.232;18.614;2023-04-29T02:15:07;17.75;;;8.77;;
73585;SDS011;61865;50.232;18.614;2023-04-29T02:17:29;19.15;;;9.05;;
73585;SDS011;61865;50.232;18.614;2023-04-29T02:19:53;14.27;;;8.50;;
73585;SDS011;61865;50.232;18.614;2023-04-29T02:22:15;17.77;;;9.00;;
73585;SDS011;61865;50.232;18.614;2023-04-29T02:24:37;16.73;;;8.65;;
73585;SDS011;61865;50.232;18.614;2023-04-29T02:26:59;18.70;;;8.57;;
73585;SDS011;61865;50.232;18.614;2023-04-29T02:29:24;14.63;;;8.68;;
73585;SDS011;61865;50.232;18.614;2023-04-29T02:31:50;14.18;;;8.63;;
73585;SDS011;61865;50.232;18.614;2023-04-29T02:34:11;15.95;;;8.40;;
73585;SDS011;61865;50.232;18.614;2023-04-29T02:36:33;14.02;;;8.07;;
73585;SDS011;61865;50.232;18.614;2023-04-29T02:38:55;13.27;;;7.65;;
73585;SDS011;61865;50.232;18.614;2023-04-29T02:41:19;13.95;;;7.97;;
73585;SDS011;61865;50.232;18.614;2023-04-29T02:43:41;13.43;;;7.63;;
73585;SDS011;61865;50.232;18.614;2023-04-29T02:46:03;13.35;;;7.93;;
73585;SDS011;61865;50.232;18.614;2023-04-29T02:48:26;19.30;;;8.07;;
73585;SDS011;61865;50.232;18.614;2023-04-29T02:50:48;13.98;;;7.75;;
73585;SDS011;61865;50.232;18.614;2023-04-29T02:53:10;11.57;;;7.13;;
73585;SDS011;61865;50.232;18.614;2023-04-29T02:55:31;14.05;;;7.38;;
73585;SDS011;61865;50.232;18.614;2023-04-29T02:57:53;14.15;;;7.40;;
73585;SDS011;61865;50.232;18.614;2023-04-29T03:00:15;13.02;;;6.95;;
73585;SDS011;61865;50.232;18.614;2023-04-29T03:02:37;12.52;;;7.13;;
73585;SDS011;61865;50.232;18.614;2023-04-29T03:05:00;12.43;;;6.57;;
73585;SDS011;61865;50.232;18.614;2023-04-29T03:07:22;13.50;;;7.15;;
73585;SDS011;61865;50.232;18.614;2023-04-29T03:09:44;12.07;;;6.13;;
73585;SDS011;61865;50.232;18.614;2023-04-29T03:12:06;13.50;;;7.15;;
73585;SDS011;61865;50.232;18.614;2023-04-29T03:14:28;11.52;;;6.97;;
73585;SDS011;61865;50.232;18.614;2023-04-29T03:16:50;11.88;;;6.72;;
73585;SDS011;61865;50.232;18.614;2023-04-29T03:19:11;17.65;;;8.32;;
73585;SDS011;61865;50.232;18.614;2023-04-29T03:21:38;11.82;;;6.90;;
73585;SDS011;61865;50.232;18.614;2023-04-29T03:23:59;12.38;;;7.05;;
73585;SDS011;61865;50.232;18.614;2023-04-29T03:26:21;11.07;;;7.07;;
73585;SDS011;61865;50.232;18.614;2023-04-29T03:28:44;15.65;;;7.40;;
73585;SDS011;61865;50.232;18.614;2023-04-29T03:31:06;13.52;;;7.20;;
73585;SDS011;61865;50.232;18.614;2023-04-29T03:33:30;15.43;;;8.05;;
73585;SDS011;61865;50.232;18.614;2023-04-29T03:35:53;13.00;;;7.65;;
73585;SDS011;61865;50.232;18.614;2023-04-29T03:38:16;11.07;;;7.68;;
73585;SDS011;61865;50.232;18.614;2023-04-29T03:40:38;15.77;;;8.18;;
73585;SDS011;61865;50.232;18.614;2023-04-29T03:43:00;15.73;;;7.85;;
73585;SDS011;61865;50.232;18.614;2023-04-29T03:45:22;15.90;;;8.60;;
73585;SDS011;61865;50.232;18.614;2023-04-29T03:47:44;15.52;;;8.60;;
73585;SDS011;61865;50.232;18.614;2023-04-29T03:50:06;16.77;;;8.85;;
73585;SDS011;61865;50.232;18.614;2023-04-29T03:52:28;17.25;;;8.43;;
73585;SDS011;61865;50.232;18.614;2023-04-29T03:54:51;14.65;;;7.82;;
73585;SDS011;61865;50.232;18.614;2023-04-29T03:57:13;16.08;;;7.75;;
73585;SDS011;61865;50.232;18.614;2023-04-29T03:59:35;14.15;;;6.90;;
73585;SDS011;61865;50.232;18.614;2023-04-29T04:01:57;12.18;;;7.75;;
73585;SDS011;61865;50.232;18.614;2023-04-29T04:04:19;11.63;;;6.78;;
73585;SDS011;61865;50.232;18.614;2023-04-29T04:06:41;14.40;;;6.55;;
73585;SDS011;61865;50.232;18.614;2023-04-29T04:09:04;11.30;;;6.63;;
73585;SDS011;61865;50.232;18.614;2023-04-29T04:11:27;13.65;;;7.10;;
73585;SDS011;61865;50.232;18.614;2023-04-29T04:13:49;10.43;;;6.53;;
73585;SDS011;61865;50.232;18.614;2023-04-29T04:16:11;14.55;;;6.55;;
73585;SDS011;61865;50.232;18.614;2023-04-29T04:18:32;13.65;;;7.03;;
73585;SDS011;61865;50.232;18.614;2023-04-29T04:20:56;15.75;;;7.40;;
73585;SDS011;61865;50.232;18.614;2023-04-29T04:23:20;10.77;;;7.07;;
73585;SDS011;61865;50.232;18.614;2023-04-29T04:25:44;12.90;;;7.10;;
73585;SDS011;61865;50.232;18.614;2023-04-29T04:28:07;15.32;;;7.35;;
73585;SDS011;61865;50.232;18.614;2023-04-29T04:30:29;13.15;;;6.75;;
73585;SDS011;61865;50.232;18.614;2023-04-29T04:32:51;13.13;;;7.75;;
73585;SDS011;61865;50.232;18.614;2023-04-29T04:35:13;15.90;;;7.43;;
73585;SDS011;61865;50.232;18.614;2023-04-29T04:37:35;12.43;;;7.35;;
73585;SDS011;61865;50.232;18.614;2023-04-29T04:39:56;15.68;;;8.68;;
73585;SDS011;61865;50.232;18.614;2023-04-29T04:42:18;18.13;;;8.23;;
73585;SDS011;61865;50.232;18.614;2023-04-29T04:44:41;17.58;;;8.35;;
73585;SDS011;61865;50.232;18.614;2023-04-29T04:47:03;16.10;;;8.88;;
73585;SDS011;61865;50.232;18.614;2023-04-29T04:49:25;19.42;;;9.20;;
73585;SDS011;61865;50.232;18.614;2023-04-29T04:51:47;16.17;;;8.88;;
73585;SDS011;61865;50.232;18.614;2023-04-29T04:54:09;16.95;;;9.38;;
73585;SDS011;61865;50.232;18.614;2023-04-29T04:56:31;14.38;;;9.65;;
73585;SDS011;61865;50.232;18.614;2023-04-29T04:58:56;18.05;;;9.90;;
73585;SDS011;61865;50.232;18.614;2023-04-29T05:01:19;20.50;;;11.05;;
73585;SDS011;61865;50.232;18.614;2023-04-29T05:03:41;21.70;;;11.00;;
73585;SDS011;61865;50.232;18.614;2023-04-29T05:06:03;19.35;;;11.05;;
73585;SDS011;61865;50.232;18.614;2023-04-29T05:08:24;21.48;;;11.93;;
73585;SDS011;61865;50.232;18.614;2023-04-29T05:10:46;18.65;;;11.00;;
73585;SDS011;61865;50.232;18.614;2023-04-29T05:13:08;18.75;;;10.77;;
73585;SDS011;61865;50.232;18.614;2023-04-29T05:15:30;19.77;;;10.95;;
73585;SDS011;61865;50.232;18.614;2023-04-29T05:17:53;18.25;;;10.27;;
73585;SDS011;61865;50.232;18.614;2023-04-29T05:20:16;16.58;;;10.70;;
73585;SDS011;61865;50.232;18.614;2023-04-29T05:22:39;17.83;;;10.35;;
73585;SDS011;61865;50.232;18.614;2023-04-29T05:25:01;19.70;;;10.55;;
73585;SDS011;61865;50.232;18.614;2023-04-29T05:27:23;21.23;;;11.07;;
73585;SDS011;61865;50.232;18.614;2023-04-29T05:29:44;18.05;;;10.68;;
73585;SDS011;61865;50.232;18.614;2023-04-29T05:32:06;20.52;;;10.35;;
73585;SDS011;61865;50.232;18.614;2023-04-29T05:34:29;17.40;;;11.15;;
73585;SDS011;61865;50.232;18.614;2023-04-29T05:36:51;20.65;;;10.38;;
73585;SDS011;61865;50.232;18.614;2023-04-29T05:39:13;21.40;;;13.05;;
73585;SDS011;61865;50.232;18.614;2023-04-29T05:41:36;22.45;;;11.20;;
73585;SDS011;61865;50.232;18.614;2023-04-29T05:43:58;21.08;;;11.68;;
73585;SDS011;61865;50.232;18.614;2023-04-29T05:46:20;22.17;;;11.20;;
73585;SDS011;61865;50.232;18.614;2023-04-29T05:48:42;20.83;;;11.45;;
73585;SDS011;61865;50.232;18.614;2023-04-29T05:51:05;21.92;;;11.25;;
73585;SDS011;61865;50.232;18.614;2023-04-29T05:53:27;20.70;;;11.25;;
73585;SDS011;61865;50.232;18.614;2023-04-29T05:55:49;18.58;;;10.85;;
73585;SDS011;61865;50.232;18.614;2023-04-29T05:58:11;18.83;;;11.15;;
73585;SDS011;61865;50.232;18.614;2023-04-29T06:00:34;20.00;;;11.65;;
73585;SDS011;61865;50.232;18.614;2023-04-29T06:02:55;19.25;;;11.77;;
73585;SDS011;61865;50.232;18.614;2023-04-29T06:05:17;18.92;;;10.77;;
73585;SDS011;61865;50.232;18.614;2023-04-29T06:07:40;17.55;;;10.85;;
73585;SDS011;61865;50.232;18.614;2023-04-29T06:10:03;26.75;;;11.32;;
73585;SDS011;61865;50.232;18.614;2023-04-29T06:12:25;17.70;;;10.77;;
73585;SDS011;61865;50.232;18.614;2023-04-29T06:14:47;19.63;;;10.15;;
73585;SDS011;61865;50.232;18.614;2023-04-29T06:17:09;18.23;;;9.90;;
73585;SDS011;61865;50.232;18.614;2023-04-29T06:19:31;22.33;;;10.13;;
73585;SDS011;61865;50.232;18.614;2023-04-29T06:21:54;17.25;;;9.63;;
73585;SDS011;61865;50.232;18.614;2023-04-29T06:24:18;15.55;;;9.23;;
73585;SDS011;61865;50.232;18.614;2023-04-29T06:26:40;15.07;;;10.05;;
73585;SDS011;61865;50.232;18.614;2023-04-29T06:29:02;18.58;;;9.82;;
73585;SDS011;61865;50.232;18.614;2023-04-29T06:31:24;14.70;;;8.48;;
73585;SDS011;61865;50.232;18.614;2023-04-29T06:33:46;18.63;;;8.32;;
73585;SDS011;61865;50.232;18.614;2023-04-29T06:36:08;17.95;;;9.70;;
73585;SDS011;61865;50.232;18.614;2023-04-29T06:38:30;14.32;;;9.05;;
73585;SDS011;61865;50.232;18.614;2023-04-29T06:40:53;15.30;;;9.13;;
73585;SDS011;61865;50.232;18.614;2023-04-29T06:43:16;18.50;;;10.05;;
73585;SDS011;61865;50.232;18.614;2023-04-29T06:45:38;18.08;;;9.98;;
73585;SDS011;61865;50.232;18.614;2023-04-29T06:48:00;18.52;;;9.68;;
73585;SDS011;61865;50.232;18.614;2023-04-29T06:50:22;17.95;;;10.88;;
73585;SDS011;61865;50.232;18.614;2023-04-29T06:52:44;18.20;;;9.73;;
73585;SDS011;61865;50.232;18.614;2023-04-29T06:55:07;19.05;;;10.23;;
73585;SDS011;61865;50.232;18.614;2023-04-29T06:57:31;23.38;;;11.73;;
73585;SDS011;61865;50.232;18.614;2023-04-29T06:59:53;19.80;;;10.77;;
73585;SDS011;61865;50.232;18.614;2023-04-29T07:02:15;20.95;;;11.75;;
73585;SDS011;61865;50.232;18.614;2023-04-29T07:04:37;22.48;;;12.07;;
73585;SDS011;61865;50.232;18.614;2023-04-29T07:06:59;19.17;;;9.90;;
73585;SDS011;61865;50.232;18.614;2023-04-29T07:09:21;17.40;;;10.05;;
73585;SDS011;61865;50.232;18.614;2023-04-29T07:11:45;24.73;;;10.18;;
73585;SDS011;61865;50.232;18.614;2023-04-29T07:14:08;22.33;;;10.48;;
73585;SDS011;61865;50.232;18.614;2023-04-29T07:16:30;22.58;;;9.38;;
73585;SDS011;61865;50.232;18.614;2023-04-29T07:18:52;19.92;;;10.38;;
73585;SDS011;61865;50.232;18.614;2023-04-29T07:21:15;15.63;;;9.27;;
73585;SDS011;61865;50.232;18.614;2023-04-29T07:23:37;13.70;;;8.73;;
73585;SDS011;61865;50.232;18.614;2023-04-29T07:26:07;13.55;;;8.63;;
73585;SDS011;61865;50.232;18.614;2023-04-29T07:28:29;27.20;;;9.15;;
73585;SDS011;61865;50.232;18.614;2023-04-29T07:30:52;15.13;;;8.35;;
73585;SDS011;61865;50.232;18.614;2023-04-29T07:33:14;17.27;;;9.02;;
73585;SDS011;61865;50.232;18.614;2023-04-29T07:35:37;21.27;;;8.85;;
73585;SDS011;61865;50.232;18.614;2023-04-29T07:38:00;19.50;;;9.27;;
73585;SDS011;61865;50.232;18.614;2023-04-29T07:40:22;15.90;;;8.68;;
73585;SDS011;61865;50.232;18.614;2023-04-29T07:42:44;19.20;;;9.38;;
73585;SDS011;61865;50.232;18.614;2023-04-29T07:45:06;18.02;;;9.07;;
73585;SDS011;61865;50.232;18.614;2023-04-29T07:47:30;15.73;;;8.23;;
73585;SDS011;61865;50.232;18.614;2023-04-29T07:49:52;14.98;;;8.55;;
73585;SDS011;61865;50.232;18.614;2023-04-29T07:52:14;16.02;;;8.85;;
73585;SDS011;61865;50.232;18.614;2023-04-29T07:54:36;11.55;;;7.05;;
73585;SDS011;61865;50.232;18.614;2023-04-29T07:56:57;21.35;;;7.05;;
73585;SDS011;61865;50.232;18.614;2023-04-29T07:59:20;15.20;;;6.82;;
73585;SDS011;61865;50.232;18.614;2023-04-29T08:01:42;12.70;;;6.65;;
73585;SDS011;61865;50.232;18.614;2023-04-29T08:04:05;10.85;;;6.88;;
73585;SDS011;61865;50.232;18.614;2023-04-29T08:06:28;10.77;;;6.38;;
73585;SDS011;61865;50.232;18.614;2023-04-29T08:08:50;15.40;;;7.25;;
73585;SDS011;61865;50.232;18.614;2023-04-29T08:11:15;19.95;;;7.47;;
73585;SDS011;61865;50.232;18.614;2023-04-29T08:13:37;11.63;;;7.07;;
73585;SDS011;61865;50.232;18.614;2023-04-29T08:15:59;12.15;;;7.00;;
73585;SDS011;61865;50.232;18.614;2023-04-29T08:18:21;11.85;;;7.10;;
73585;SDS011;61865;50.232;18.614;2023-04-29T08:20:47;12.88;;;6.57;;
73585;SDS011;61865;50.232;18.614;2023-04-29T08:23:10;18.23;;;7.07;;
73585;SDS011;61865;50.232;18.614;2023-04-29T08:25:32;18.33;;;7.18;;
73585;SDS011;61865;50.232;18.614;2023-04-29T08:27:53;14.18;;;6.70;;
73585;SDS011;61865;50.232;18.614;2023-04-29T08:30:15;18.90;;;7.00;;
73585;SDS011;61865;50.232;18.614;2023-04-29T08:32:37;13.70;;;6.88;;
73585;SDS011;61865;50.232;18.614;2023-04-29T08:34:59;11.73;;;6.47;;
73585;SDS011;61865;50.232;18.614;2023-04-29T08:37:22;12.93;;;6.80;;
73585;SDS011;61865;50.232;18.614;2023-04-29T08:39:45;18.42;;;6.95;;
73585;SDS011;61865;50.232;18.614;2023-04-29T08:42:08;12.05;;;6.88;;
73585;SDS011;61865;50.232;18.614;2023-04-29T08:44:30;13.13;;;7.15;;
73585;SDS011;61865;50.232;18.614;2023-04-29T08:46:53;21.50;;;7.15;;
73585;SDS011;61865;50.232;18.614;2023-04-29T08:49:17;13.07;;;6.63;;
73585;SDS011;61865;50.232;18.614;2023-04-29T08:51:39;11.90;;;5.75;;
73585;SDS011;61865;50.232;18.614;2023-04-29T08:54:02;11.65;;;6.18;;
73585;SDS011;61865;50.232;18.614;2023-04-29T08:56:25;12.05;;;5.85;;
73585;SDS011;61865;50.232;18.614;2023-04-29T08:58:48;12.43;;;6.05;;
73585;SDS011;61865;50.232;18.614;2023-04-29T09:01:13;14.55;;;6.78;;
73585;SDS011;61865;50.232;18.614;2023-04-29T09:03:36;13.70;;;6.30;;
73585;SDS011;61865;50.232;18.614;2023-04-29T09:06:04;10.65;;;6.20;;
73585;SDS011;61865;50.232;18.614;2023-04-29T09:08:26;15.77;;;6.57;;
73585;SDS011;61865;50.232;18.614;2023-04-29T09:10:51;12.30;;;6.82;;
73585;SDS011;61865;50.232;18.614;2023-04-29T09:13:21;13.65;;;6.68;;
73585;SDS011;61865;50.232;18.614;2023-04-29T09:15:45;13.45;;;6.50;;
73585;SDS011;61865;50.232;18.614;2023-04-29T09:18:06;11.77;;;6.57;;
73585;SDS011;61865;50.232;18.614;2023-04-29T09:20:31;12.27;;;6.70;;
73585;SDS011;61865;50.232;18.614;2023-04-29T09:22:54;11.15;;;6.05;;
73585;SDS011;61865;50.232;18.614;2023-04-29T09:25:16;13.85;;;6.13;;
73585;SDS011;61865;50.232;18.614;2023-04-29T09:27:40;12.75;;;6.22;;
73585;SDS011;61865;50.232;18.614;2023-04-29T09:30:02;13.98;;;6.63;;
73585;SDS011;61865;50.232;18.614;2023-04-29T09:32:24;12.63;;;5.90;;
73585;SDS011;61865;50.232;18.614;2023-04-29T09:34:46;13.48;;;7.30;;
73585;SDS011;61865;50.232;18.614;2023-04-29T09:37:21;14.73;;;6.75;;
73585;SDS011;61865;50.232;18.614;2023-04-29T09:39:45;10.60;;;6.32;;
73585;SDS011;61865;50.232;18.614;2023-04-29T09:42:07;13.00;;;6.60;;
73585;SDS011;61865;50.232;18.614;2023-04-29T09:44:30;12.02;;;6.82;;
73585;SDS011;61865;50.232;18.614;2023-04-29T09:46:54;11.43;;;6.38;;
73585;SDS011;61865;50.232;18.614;2023-04-29T09:49:21;12.40;;;6.90;;
73585;SDS011;61865;50.232;18.614;2023-04-29T09:51:50;13.27;;;6.80;;
73585;SDS011;61865;50.232;18.614;2023-04-29T09:54:19;13.25;;;6.50;;
73585;SDS011;61865;50.232;18.614;2023-04-29T09:56:47;12.73;;;6.85;;
73585;SDS011;61865;50.232;18.614;2023-04-29T09:59:13;22.20;;;10.20;;
73585;SDS011;61865;50.232;18.614;2023-04-29T10:01:37;24.60;;;11.65;;
73585;SDS011;61865;50.232;18.614;2023-04-29T10:04:02;13.82;;;6.75;;
73585;SDS011;61865;50.232;18.614;2023-04-29T10:06:25;10.73;;;5.38;;
73585;SDS011;61865;50.232;18.614;2023-04-29T10:08:47;11.65;;;6.32;;
73585;SDS011;61865;50.232;18.614;2023-04-29T10:11:10;16.63;;;5.50;;
73585;SDS011;61865;50.232;18.614;2023-04-29T10:13:34;12.55;;;5.45;;
73585;SDS011;61865;50.232;18.614;2023-04-29T10:15:59;11.35;;;5.85;;
73585;SDS011;61865;50.232;18.614;2023-04-29T10:18:34;11.40;;;5.45;;
73585;SDS011;61865;50.232;18.614;2023-04-29T10:20:57;10.60;;;5.68;;
73585;SDS011;61865;50.232;18.614;2023-04-29T10:23:22;9.25;;;5.35;;
73585;SDS011;61865;50.232;18.614;2023-04-29T10:25:45;13.27;;;4.97;;
73585;SDS011;61865;50.232;18.614;2023-04-29T10:28:11;13.32;;;5.78;;
73585;SDS011;61865;50.232;18.614;2023-04-29T10:30:35;11.48;;;5.55;;
73585;SDS011;61865;50.232;18.614;2023-04-29T10:33:12;14.90;;;5.97;;
73585;SDS011;61865;50.232;18.614;2023-04-29T10:35:36;13.07;;;5.97;;
73585;SDS011;61865;50.232;18.614;2023-04-29T10:37:58;11.57;;;6.05;;
73585;SDS011;61865;50.232;18.614;2023-04-29T10:40:26;12.30;;;5.80;;
73585;SDS011;61865;50.232;18.614;2023-04-29T10:42:56;12.23;;;6.00;;
73585;SDS011;61865;50.232;18.614;2023-04-29T10:45:19;11.77;;;6.47;;
73585;SDS011;61865;50.232;18.614;2023-04-29T10:53:20;13.68;;;6.90;;
73585;SDS011;61865;50.232;18.614;2023-04-29T10:55:45;15.40;;;7.60;;
73585;SDS011;61865;50.232;18.614;2023-04-29T10:58:32;15.95;;;7.00;;
73585;SDS011;61865;50.232;18.614;2023-04-29T11:01:11;12.68;;;7.50;;
73585;SDS011;61865;50.232;18.614;2023-04-29T11:06:24;11.60;;;7.47;;
73585;SDS011;61865;50.232;18.614;2023-04-29T11:08:59;13.85;;;8.20;;
73585;SDS011;61865;50.232;18.614;2023-04-29T11:11:25;16.13;;;8.50;;
73585;SDS011;61865;50.232;18.614;2023-04-29T11:13:47;13.45;;;8.02;;
73585;SDS011;61865;50.232;18.614;2023-04-29T11:16:10;12.13;;;8.02;;
73585;SDS011;61865;50.232;18.614;2023-04-29T11:18:33;14.50;;;8.77;;
73585;SDS011;61865;50.232;18.614;2023-04-29T11:21:12;12.95;;;7.78;;
73585;SDS011;61865;50.232;18.614;2023-04-29T11:23:36;15.55;;;8.60;;
73585;SDS011;61865;50.232;18.614;2023-04-29T11:26:00;13.48;;;8.07;;
73585;SDS011;61865;50.232;18.614;2023-04-29T11:28:25;13.00;;;7.63;;
73585;SDS011;61865;50.232;18.614;2023-04-29T11:30:48;11.95;;;6.40;;
73585;SDS011;61865;50.232;18.614;2023-04-29T11:33:10;10.48;;;6.00;;
73585;SDS011;61865;50.232;18.614;2023-04-29T11:35:33;12.68;;;6.55;;
73585;SDS011;61865;50.232;18.614;2023-04-29T11:38:00;15.52;;;7.50;;
73585;SDS011;61865;50.232;18.614;2023-04-29T11:40:23;13.25;;;7.50;;
73585;SDS011;61865;50.232;18.614;2023-04-29T11:42:46;12.38;;;6.90;;
73585;SDS011;61865;50.232;18.614;2023-04-29T11:45:09;13.07;;;6.88;;
73585;SDS011;61865;50.232;18.614;2023-04-29T11:47:31;10.40;;;5.32;;
73585;SDS011;61865;50.232;18.614;2023-04-29T11:49:53;11.95;;;6.18;;
73585;SDS011;61865;50.232;18.614;2023-04-29T11:52:21;9.10;;;4.57;;
73585;SDS011;61865;50.232;18.614;2023-04-29T11:54:45;7.15;;;3.97;;
73585;SDS011;61865;50.232;18.614;2023-04-29T11:57:10;7.15;;;3.60;;
73585;SDS011;61865;50.232;18.614;2023-04-29T11:59:33;5.43;;;2.90;;
73585;SDS011;61865;50.232;18.614;2023-04-29T12:01:57;6.18;;;2.80;;
73585;SDS011;61865;50.232;18.614;2023-04-29T12:04:19;5.93;;;2.90;;
73585;SDS011;61865;50.232;18.614;2023-04-29T12:06:41;5.95;;;3.00;;
73585;SDS011;61865;50.232;18.614;2023-04-29T12:09:03;6.30;;;3.17;;
73585;SDS011;61865;50.232;18.614;2023-04-29T12:11:26;6.38;;;3.58;;
73585;SDS011;61865;50.232;18.614;2023-04-29T12:13:48;7.10;;;4.00;;
73585;SDS011;61865;50.232;18.614;2023-04-29T12:16:10;8.05;;;4.03;;
73585;SDS011;61865;50.232;18.614;2023-04-29T12:18:32;6.95;;;3.78;;
73585;SDS011;61865;50.232;18.614;2023-04-29T12:20:55;8.38;;;4.40;;
73585;SDS011;61865;50.232;18.614;2023-04-29T12:23:18;6.65;;;3.55;;
73585;SDS011;61865;50.232;18.614;2023-04-29T12:25:44;8.23;;;3.67;;
73585;SDS011;61865;50.232;18.614;2023-04-29T12:28:12;7.63;;;3.53;;
73585;SDS011;61865;50.232;18.614;2023-04-29T12:30:34;9.98;;;3.70;;
73585;SDS011;61865;50.232;18.614;2023-04-29T12:32:56;5.03;;;2.90;;
73585;SDS011;61865;50.232;18.614;2023-04-29T12:35:18;5.57;;;3.03;;
73585;SDS011;61865;50.232;18.614;2023-04-29T12:37:41;5.00;;;3.03;;
73585;SDS011;61865;50.232;18.614;2023-04-29T12:40:03;8.73;;;3.70;;
73585;SDS011;61865;50.232;18.614;2023-04-29T12:42:30;6.93;;;3.33;;
73585;SDS011;61865;50.232;18.614;2023-04-29T12:44:54;9.07;;;4.07;;
73585;SDS011;61865;50.232;18.614;2023-04-29T12:47:17;8.32;;;4.18;;
73585;SDS011;61865;50.232;18.614;2023-04-29T12:49:40;5.93;;;3.72;;
73585;SDS011;61865;50.232;18.614;2023-04-29T12:52:03;8.25;;;3.80;;
73585;SDS011;61865;50.232;18.614;2023-04-29T12:54:28;10.90;;;3.90;;
73585;SDS011;61865;50.232;18.614;2023-04-29T12:56:50;6.40;;;3.80;;
73585;SDS011;61865;50.232;18.614;2023-04-29T12:59:15;8.48;;;4.13;;
73585;SDS011;61865;50.232;18.614;2023-04-29T13:01:49;8.18;;;4.43;;
73585;SDS011;61865;50.232;18.614;2023-04-29T13:04:11;8.95;;;4.70;;
73585;SDS011;61865;50.232;18.614;2023-04-29T13:06:33;8.23;;;4.25;;
73585;SDS011;61865;50.232;18.614;2023-04-29T13:08:58;8.35;;;4.63;;
73585;SDS011;61865;50.232;18.614;2023-04-29T13:11:20;7.10;;;4.32;;
73585;SDS011;61865;50.232;18.614;2023-04-29T13:13:41;7.50;;;4.55;;
73585;SDS011;61865;50.232;18.614;2023-04-29T13:16:04;8.75;;;4.38;;
73585;SDS011;61865;50.232;18.614;2023-04-29T13:18:28;9.52;;;4.20;;
73585;SDS011;61865;50.232;18.614;2023-04-29T13:20:50;13.63;;;4.63;;
73585;SDS011;61865;50.232;18.614;2023-04-29T13:23:12;7.18;;;4.45;;
73585;SDS011;61865;50.232;18.614;2023-04-29T13:25:34;8.50;;;4.22;;
73585;SDS011;61865;50.232;18.614;2023-04-29T13:27:56;8.43;;;4.57;;
73585;SDS011;61865;50.232;18.614;2023-04-29T13:30:19;8.93;;;4.22;;
73585;SDS011;61865;50.232;18.614;2023-04-29T13:32:42;10.05;;;4.00;;
73585;SDS011;61865;50.232;18.614;2023-04-29T13:35:06;8.80;;;4.45;;
73585;SDS011;61865;50.232;18.614;2023-04-29T13:37:29;7.78;;;4.20;;
73585;SDS011;61865;50.232;18.614;2023-04-29T13:39:50;9.63;;;3.88;;
73585;SDS011;61865;50.232;18.614;2023-04-29T13:42:12;9.00;;;4.55;;
73585;SDS011;61865;50.232;18.614;2023-04-29T13:44:34;9.80;;;4.82;;
73585;SDS011;61865;50.232;18.614;2023-04-29T13:46:56;9.88;;;4.72;;
73585;SDS011;61865;50.232;18.614;2023-04-29T13:49:18;9.10;;;4.60;;
73585;SDS011;61865;50.232;18.614;2023-04-29T13:51:41;11.30;;;4.60;;
73585;SDS011;61865;50.232;18.614;2023-04-29T13:54:03;8.48;;;4.60;;
73585;SDS011;61865;50.232;18.614;2023-04-29T13:56:25;11.57;;;4.75;;
73585;SDS011;61865;50.232;18.614;2023-04-29T13:58:50;8.10;;;4.22;;
73585;SDS011;61865;50.232;18.614;2023-04-29T14:01:12;8.68;;;4.40;;
73585;SDS011;61865;50.232;18.614;2023-04-29T14:03:34;13.60;;;5.72;;
73585;SDS011;61865;50.232;18.614;2023-04-29T14:05:55;9.65;;;4.57;;
73585;SDS011;61865;50.232;18.614;2023-04-29T14:08:19;6.57;;;3.92;;